Time;durP1;ratioP1;P1;durP2;ratioP2;P2;SDS_P1;SDS_P2;PMS_P1;PMS_P2;Temp;Humidity;BMP_temperature;BMP_pressure;BME280_temperature;BME280_humidity;BME280_pressure;Samples;Min_cycle;Max_cycle;Signal;HPM_P1;HPM_P2
2022/08/15 00:00:26;;;;;;;12.32;9.25;;;21.60;99.90;;;;;;5008342;28;20053;-78
2022/08/15 00:02:53;;;;;;;16.85;9.90;;;21.60;99.90;;;;;;4947790;28;210020;-78
2022/08/15 00:05:22;;;;;;;13.52;9.38;;;21.50;99.90;;;;;;4992395;28;20064;-80
2022/08/15 00:07:49;;;;;;;15.25;9.27;;;21.50;99.90;;;;;;4976491;28;209354;-80
2022/08/15 00:10:18;;;;;;;14.10;9.52;;;21.50;99.90;;;;;;4985327;28;198706;-78
2022/08/15 00:12:44;;;;;;;14.88;9.40;;;21.50;99.90;;;;;;4993389;28;168654;-78
2022/08/15 00:15:15;;;;;;;16.38;9.98;;;21.40;99.90;;;;;;4953236;28;281010;-79
2022/08/15 00:17:42;;;;;;;15.27;9.68;;;21.40;99.90;;;;;;4993712;28;123767;-80
2022/08/15 00:20:10;;;;;;;16.25;9.70;;;21.30;99.90;;;;;;4983404;28;207058;-79
2022/08/15 00:22:48;;;;;;;11.27;8.57;;;21.30;99.90;;;;;;5028538;28;163366;-79
2022/08/15 00:25:16;;;;;;;13.02;8.95;;;21.30;99.90;;;;;;4990173;28;148245;-79
2022/08/15 00:27:43;;;;;;;15.10;9.55;;;21.30;99.90;;;;;;4983336;28;185900;-79
2022/08/15 00:30:11;;;;;;;13.32;9.20;;;21.30;99.90;;;;;;4958699;28;206283;-79
2022/08/15 00:32:37;;;;;;;13.85;9.10;;;21.30;99.90;;;;;;4997141;28;107882;-79
2022/08/15 00:35:35;;;;;;;12.73;9.18;;;21.30;99.90;;;;;;4983415;28;229125;-79
2022/08/15 00:37:55;;;;;;;14.77;8.90;;;21.20;99.90;;;;;;4952842;28;205930;-79
2022/08/15 00:40:25;;;;;;;17.50;8.80;;;21.20;99.90;;;;;;5029186;28;20053;-79
2022/08/15 00:42:52;;;;;;;14.25;9.25;;;21.20;99.90;;;;;;4938621;28;207861;-79
2022/08/15 00:45:20;;;;;;;13.05;9.00;;;21.10;99.90;;;;;;4990491;28;20053;-79
2022/08/15 00:48:41;;;;;;;12.88;9.10;;;21.10;99.90;;;;;;5000379;28;271750;-80
2022/08/15 00:50:34;;;;;;;13.70;9.02;;;21.10;99.90;;;;;;4996143;28;191550;-80
2022/08/15 00:53:08;;;;;;;12.57;9.25;;;21.00;99.90;;;;;;4934422;28;221212;-80
2022/08/15 00:55:39;;;;;;;14.52;9.32;;;21.00;99.90;;;;;;5021352;28;20801;-79
2022/08/15 00:58:05;;;;;;;14.23;8.73;;;21.00;99.90;;;;;;4991063;28;260635;-79
2022/08/15 01:00:40;;;;;;;14.63;9.40;;;21.00;99.90;;;;;;5012611;28;20056;-79
2022/08/15 01:03:11;;;;;;;14.37;9.57;;;21.00;99.90;;;;;;4939300;28;254759;-79
2022/08/15 01:05:37;;;;;;;13.07;9.43;;;20.90;99.90;;;;;;5024709;28;20058;-81
2022/08/15 01:08:04;;;;;;;12.23;9.20;;;20.90;99.90;;;;;;4947859;28;207169;-82
2022/08/15 01:10:30;;;;;;;12.85;9.82;;;20.90;99.90;;;;;;5008411;28;20053;-81
2022/08/15 01:12:57;;;;;;;15.85;10.10;;;20.90;99.90;;;;;;4964324;28;218020;-81
2022/08/15 01:15:24;;;;;;;16.55;10.70;;;20.90;99.90;;;;;;4987362;28;20056;-81
2022/08/15 01:17:51;;;;;;;15.13;10.32;;;20.90;99.90;;;;;;4966592;28;206071;-82
2022/08/15 01:20:21;;;;;;;13.48;9.27;;;20.80;99.90;;;;;;5012765;28;209730;-82
2022/08/15 01:23:15;;;;;;;14.85;9.48;;;20.90;99.90;;;;;;4977882;28;198660;-82
2022/08/15 01:25:43;;;;;;;12.95;9.38;;;20.90;99.90;;;;;;4964935;28;149642;-80
2022/08/15 01:28:24;;;;;;;13.32;9.68;;;20.90;99.90;;;;;;4942508;28;187530;-80
2022/08/15 01:30:55;;;;;;;12.27;9.70;;;20.90;99.90;;;;;;5006028;28;20037;-81
2022/08/15 01:33:23;;;;;;;12.90;9.63;;;20.90;99.90;;;;;;4948305;28;213951;-81
2022/08/15 01:35:51;;;;;;;13.65;10.50;;;20.90;99.90;;;;;;4998572;28;20597;-81
2022/08/15 01:38:55;;;;;;;15.18;10.35;;;20.90;99.90;;;;;;4984008;28;211226;-81
2022/08/15 01:41:31;;;;;;;13.43;10.02;;;21.00;99.90;;;;;;4986174;28;98537;-81
2022/08/15 01:44:21;;;;;;;13.20;9.57;;;21.00;99.90;;;;;;4983126;28;149146;-81
2022/08/15 01:46:59;;;;;;;13.00;9.20;;;21.00;99.90;;;;;;5012196;28;198225;-81
2022/08/15 01:49:35;;;;;;;13.98;9.93;;;21.10;99.90;;;;;;4974976;28;206135;-81
2022/08/15 01:52:04;;;;;;;12.23;9.27;;;21.10;99.90;;;;;;4989857;28;200466;-80
2022/08/15 01:54:41;;;;;;;15.10;10.10;;;21.10;99.90;;;;;;4957637;28;206047;-81
2022/08/15 01:57:08;;;;;;;12.70;9.50;;;21.10;99.90;;;;;;5011878;28;244147;-82
2022/08/15 01:59:34;;;;;;;13.35;9.57;;;21.10;99.90;;;;;;4927672;28;205622;-82
2022/08/15 02:02:07;;;;;;;14.32;10.27;;;21.20;99.90;;;;;;4959436;28;180847;-82
2022/08/15 02:04:39;;;;;;;12.45;9.48;;;21.20;99.90;;;;;;4945050;28;206159;-81
2022/08/15 02:07:10;;;;;;;13.15;9.70;;;21.20;99.90;;;;;;4973217;28;179547;-82
2022/08/15 02:09:37;;;;;;;14.50;8.85;;;21.20;99.90;;;;;;4946975;28;208140;-81
2022/08/15 02:12:08;;;;;;;13.38;8.55;;;21.30;99.90;;;;;;4985155;28;240634;-79
2022/08/15 02:14:35;;;;;;;13.25;10.07;;;21.30;99.90;;;;;;4950791;28;141222;-78
2022/08/15 02:17:03;;;;;;;13.52;9.40;;;21.30;99.90;;;;;;4994246;28;26212;-78
2022/08/15 02:19:29;;;;;;;14.98;9.55;;;21.30;99.90;;;;;;4972248;28;202975;-78
2022/08/15 02:21:56;;;;;;;13.40;8.75;;;21.30;99.90;;;;;;5004689;28;67826;-79
2022/08/15 02:24:24;;;;;;;17.35;9.18;;;21.30;99.90;;;;;;4955518;28;205374;-78
2022/08/15 02:26:53;;;;;;;13.27;8.70;;;21.40;99.90;;;;;;5009006;28;21848;-79
2022/08/15 02:29:25;;;;;;;12.40;8.80;;;21.40;99.90;;;;;;4942487;28;210651;-78
2022/08/15 02:32:15;;;;;;;13.02;9.82;;;21.40;99.90;;;;;;4987764;28;170770;-79
2022/08/15 02:34:44;;;;;;;15.30;10.63;;;21.40;99.90;;;;;;4934758;28;205991;-79
2022/08/15 02:37:11;;;;;;;15.02;10.55;;;21.40;99.90;;;;;;4996687;28;91540;-79
2022/08/15 02:39:39;;;;;;;17.65;10.50;;;21.30;99.90;;;;;;4977011;28;216370;-79
2022/08/15 02:42:05;;;;;;;12.40;9.77;;;21.20;99.90;;;;;;5014153;28;34412;-78
2022/08/15 02:44:32;;;;;;;14.52;10.68;;;21.20;99.90;;;;;;4968463;28;210857;-78
2022/08/15 02:47:00;;;;;;;16.15;10.68;;;21.20;99.90;;;;;;5002569;28;250293;-77
2022/08/15 02:49:27;;;;;;;13.05;9.93;;;21.20;99.90;;;;;;4963923;28;205236;-79
2022/08/15 02:51:54;;;;;;;13.30;9.80;;;21.20;99.90;;;;;;5012447;28;38040;-78
2022/08/15 02:54:23;;;;;;;13.25;9.75;;;21.20;99.90;;;;;;4960231;28;208682;-79
2022/08/15 02:56:49;;;;;;;17.48;10.55;;;21.10;99.90;;;;;;4999514;28;117897;-79
2022/08/15 02:59:15;;;;;;;14.20;11.32;;;21.10;99.90;;;;;;4951418;28;209322;-79
2022/08/15 03:01:42;;;;;;;15.85;10.35;;;21.10;99.90;;;;;;4982261;28;132862;-79
2022/08/15 03:04:13;;;;;;;16.77;10.65;;;21.10;99.90;;;;;;4978575;28;218010;-79
2022/08/15 03:06:39;;;;;;;14.48;10.15;;;21.10;99.90;;;;;;5017575;28;252468;-79
2022/08/15 03:09:08;;;;;;;13.10;10.13;;;21.00;99.90;;;;;;4967618;28;208574;-79
2022/08/15 03:11:38;;;;;;;12.73;10.02;;;21.00;99.90;;;;;;5003754;28;67448;-79
2022/08/15 03:14:13;;;;;;;16.30;11.73;;;20.90;99.90;;;;;;4951649;28;216438;-79
2022/08/15 03:16:43;;;;;;;15.18;10.60;;;20.90;99.90;;;;;;4967975;28;203192;-78
2022/08/15 03:19:16;;;;;;;16.35;10.35;;;20.90;99.90;;;;;;4943913;28;209759;-78
2022/08/15 03:21:43;;;;;;;13.60;10.00;;;20.80;99.90;;;;;;5011002;28;130846;-79
2022/08/15 03:24:10;;;;;;;12.82;10.43;;;20.80;99.90;;;;;;4974773;28;162203;-79
2022/08/15 03:26:37;;;;;;;12.75;10.02;;;20.80;99.90;;;;;;4993106;28;60365;-79
2022/08/15 03:29:04;;;;;;;13.85;10.27;;;20.70;99.90;;;;;;4960795;28;226563;-79
2022/08/15 03:31:32;;;;;;;14.23;9.75;;;20.70;99.90;;;;;;4997260;28;20061;-79
2022/08/15 03:33:58;;;;;;;13.30;10.23;;;20.70;99.90;;;;;;4957111;28;201310;-78
2022/08/15 03:36:24;;;;;;;14.68;11.15;;;20.60;99.90;;;;;;5008077;28;36570;-78
2022/08/15 03:38:51;;;;;;;13.95;10.50;;;20.50;99.90;;;;;;4974180;28;215214;-79
2022/08/15 03:41:17;;;;;;;13.27;10.13;;;20.50;99.90;;;;;;5000102;28;263389;-78
2022/08/15 03:43:46;;;;;;;13.93;10.10;;;20.50;99.90;;;;;;4974439;28;204144;-79
2022/08/15 03:46:17;;;;;;;14.95;11.00;;;20.40;99.90;;;;;;5008516;28;246750;-78
2022/08/15 03:48:50;;;;;;;16.70;10.48;;;20.40;99.90;;;;;;4953529;28;194704;-79
2022/08/15 03:51:18;;;;;;;16.58;10.80;;;20.30;99.90;;;;;;4989576;28;252478;-78
2022/08/15 03:53:48;;;;;;;13.00;10.98;;;20.30;99.90;;;;;;4975942;28;205410;-77
2022/08/15 03:56:19;;;;;;;15.80;11.07;;;20.30;99.90;;;;;;5003260;28;270552;-78
2022/08/15 03:58:47;;;;;;;16.13;10.95;;;20.20;99.90;;;;;;4951411;28;205657;-79
2022/08/15 04:01:17;;;;;;;14.55;11.95;;;20.20;99.90;;;;;;5004566;28;274497;-79
2022/08/15 04:03:45;;;;;;;16.50;12.23;;;20.10;99.90;;;;;;4958195;28;210766;-79
2022/08/15 04:06:16;;;;;;;16.40;11.25;;;20.10;99.90;;;;;;5009602;28;263749;-78
2022/08/15 04:08:45;;;;;;;15.48;11.73;;;20.10;99.90;;;;;;4978156;28;205544;-80
2022/08/15 04:11:14;;;;;;;14.75;11.68;;;20.00;99.90;;;;;;5010995;28;269173;-79
2022/08/15 04:13:41;;;;;;;14.48;12.35;;;20.00;99.90;;;;;;4956228;28;188563;-79
2022/08/15 04:16:07;;;;;;;16.48;12.10;;;20.00;99.90;;;;;;4999248;28;263201;-80
2022/08/15 04:18:34;;;;;;;16.70;12.30;;;19.90;99.90;;;;;;4970939;28;208926;-79
2022/08/15 04:21:03;;;;;;;15.77;11.95;;;19.90;99.90;;;;;;5006437;28;264992;-79
2022/08/15 04:23:30;;;;;;;17.00;12.77;;;19.90;99.90;;;;;;4957131;28;215473;-79
2022/08/15 04:25:56;;;;;;;17.00;12.07;;;19.90;99.90;;;;;;4992825;28;270309;-80
2022/08/15 04:28:25;;;;;;;16.30;12.88;;;19.90;99.90;;;;;;4952814;28;206451;-80
2022/08/15 04:30:51;;;;;;;15.60;13.00;;;19.80;99.90;;;;;;5011397;28;20056;-80
2022/08/15 04:33:22;;;;;;;15.65;12.23;;;19.80;99.90;;;;;;4978003;28;206670;-79
2022/08/15 04:35:51;;;;;;;14.43;12.43;;;19.80;99.90;;;;;;5027485;28;20052;-79
2022/08/15 04:38:18;;;;;;;16.42;12.43;;;19.80;99.90;;;;;;4966635;28;211240;-76
2022/08/15 04:40:47;;;;;;;17.73;11.82;;;19.80;99.90;;;;;;4991259;28;20049;-78
2022/08/15 04:43:14;;;;;;;15.93;12.23;;;19.90;99.90;;;;;;4969041;28;205665;-78
2022/08/15 04:45:42;;;;;;;15.98;12.13;;;19.90;99.90;;;;;;5028636;28;20065;-78
2022/08/15 04:48:14;;;;;;;16.55;11.60;;;19.90;99.90;;;;;;4954896;28;230106;-78
2022/08/15 04:50:42;;;;;;;15.60;12.77;;;19.90;99.90;;;;;;5013080;28;20729;-78
2022/08/15 04:53:08;;;;;;;14.52;12.50;;;19.90;99.90;;;;;;4970618;28;206038;-79
2022/08/15 04:55:36;;;;;;;16.27;13.43;;;19.90;99.90;;;;;;5008650;28;20045;-78
2022/08/15 04:58:03;;;;;;;17.88;12.30;;;20.00;99.90;;;;;;4952495;28;199411;-78
2022/08/15 05:00:31;;;;;;;16.75;12.95;;;20.00;99.90;;;;;;5008521;28;20062;-78
2022/08/15 05:03:02;;;;;;;15.00;12.13;;;20.00;99.90;;;;;;4921605;28;243671;-78
2022/08/15 05:05:30;;;;;;;15.82;11.88;;;20.10;99.90;;;;;;5014515;28;20053;-78
2022/08/15 05:07:56;;;;;;;15.68;13.13;;;20.10;99.90;;;;;;4971121;28;216975;-78
2022/08/15 05:10:22;;;;;;;17.23;13.10;;;20.10;99.90;;;;;;5007785;28;20384;-79
2022/08/15 05:12:48;;;;;;;14.60;11.82;;;20.10;99.90;;;;;;4978250;28;210528;-79
2022/08/15 05:15:17;;;;;;;15.45;12.70;;;20.10;99.90;;;;;;4971355;28;205495;-78
2022/08/15 05:17:45;;;;;;;16.33;13.75;;;20.10;99.90;;;;;;4990267;28;179061;-79
2022/08/15 05:20:12;;;;;;;15.98;13.05;;;20.20;99.90;;;;;;4996795;28;218591;-78
2022/08/15 05:22:54;;;;;;;17.38;11.65;;;20.20;99.90;;;;;;5003326;28;226367;-78
2022/08/15 05:25:21;;;;;;;19.23;13.07;;;20.30;99.90;;;;;;4981532;28;205510;-78
2022/08/15 05:27:48;;;;;;;15.18;11.60;;;20.30;99.90;;;;;;4982562;28;115779;-77
2022/08/15 05:30:15;;;;;;;16.38;12.30;;;20.30;99.90;;;;;;4966715;28;20088;-77
2022/08/15 05:32:41;;;;;;;17.95;12.77;;;20.30;99.90;;;;;;4980164;28;241676;-77
2022/08/15 05:35:08;;;;;;;16.70;12.20;;;20.30;99.90;;;;;;4957750;28;211485;-77
2022/08/15 05:37:34;;;;;;;15.65;11.80;;;20.40;99.90;;;;;;4980363;28;75670;-77
2022/08/15 05:40:00;;;;;;;15.65;12.35;;;20.40;99.90;;;;;;4974946;28;210611;-77
2022/08/15 05:42:59;;;;;;;13.25;11.55;;;20.40;99.90;;;;;;5000233;28;175633;-78
2022/08/15 05:45:33;;;;;;;15.35;12.20;;;20.50;99.90;;;;;;4925066;28;205835;-77
2022/08/15 05:48:11;;;;;;;15.07;12.20;;;20.50;99.90;;;;;;4943891;28;206264;-77
2022/08/15 05:50:53;;;;;;;19.42;13.30;;;20.60;99.90;;;;;;4986704;28;20054;-77
2022/08/15 05:53:20;;;;;;;15.52;12.27;;;20.60;99.90;;;;;;4955598;28;180214;-78
2022/08/15 05:55:58;;;;;;;18.02;12.88;;;20.70;99.90;;;;;;4985566;28;20057;-76
2022/08/15 05:58:48;;;;;;;15.27;12.48;;;20.70;99.90;;;;;;4958748;28;206935;-77
2022/08/15 06:01:39;;;;;;;17.75;12.70;;;20.80;99.90;;;;;;4987196;28;262797;-77
2022/08/15 06:04:09;;;;;;;15.87;12.87;;;20.90;99.90;;;;;;4964828;28;208745;-80
2022/08/15 06:06:38;;;;;;;15.43;11.73;;;21.00;99.90;;;;;;5015025;28;253790;-80
2022/08/15 06:09:28;;;;;;;15.30;11.80;;;21.20;99.90;;;;;;4965061;28;205311;-80
2022/08/15 06:11:55;;;;;;;16.83;11.63;;;21.30;99.90;;;;;;4986611;28;126068;-80
2022/08/15 06:14:24;;;;;;;15.65;12.07;;;21.50;99.90;;;;;;4947915;28;208456;-81
2022/08/15 06:16:53;;;;;;;20.42;11.23;;;21.50;99.90;;;;;;5015393;28;43310;-80
2022/08/15 06:19:22;;;;;;;15.25;11.23;;;21.70;99.90;;;;;;4950960;28;209608;-79
2022/08/15 06:21:53;;;;;;;14.75;10.40;;;21.80;99.90;;;;;;4992161;28;22384;-79
2022/08/15 06:24:29;;;;;;;16.33;10.73;;;21.90;99.90;;;;;;4936802;28;205729;-79
2022/08/15 06:27:07;;;;;;;12.68;9.27;;;22.00;99.90;;;;;;4988383;28;37924;-80
2022/08/15 06:29:55;;;;;;;11.98;9.32;;;22.20;99.90;;;;;;4967621;28;188875;-80
2022/08/15 06:32:54;;;;;;;15.30;9.50;;;22.30;99.90;;;;;;5005097;28;216904;-80
2022/08/15 06:35:35;;;;;;;12.77;9.27;;;22.60;99.90;;;;;;4964881;28;208194;-81
2022/08/15 06:38:25;;;;;;;13.18;9.05;;;22.80;99.90;;;;;;4976552;28;238925;-80
2022/08/15 06:41:32;;;;;;;12.48;9.15;;;23.30;99.90;;;;;;5021970;28;20529;-78
2022/08/15 06:44:00;;;;;;;13.02;8.45;;;23.90;99.90;;;;;;4934693;28;212159;-79
2022/08/15 06:46:33;;;;;;;12.90;8.32;;;24.30;99.90;;;;;;4985585;28;121773;-79
2022/08/15 06:49:03;;;;;;;12.75;8.38;;;24.60;99.90;;;;;;4957159;28;208726;-80
2022/08/15 06:51:31;;;;;;;11.80;8.23;;;24.70;99.90;;;;;;4984470;28;115714;-80
2022/08/15 06:53:58;;;;;;;12.18;8.00;;;24.60;99.90;;;;;;4979111;28;207183;-80
2022/08/15 06:56:33;;;;;;;12.43;8.00;;;24.60;99.90;;;;;;4987003;28;233995;-81
2022/08/15 06:59:05;;;;;;;11.30;7.78;;;24.80;99.90;;;;;;4961226;28;205844;-80
2022/08/15 07:01:49;;;;;;;11.77;7.80;;;25.10;99.90;;;;;;4988511;28;152987;-79
2022/08/15 07:04:22;;;;;;;13.25;7.65;;;25.20;99.90;;;;;;4960950;28;206106;-79
2022/08/15 07:07:04;;;;;;;10.95;7.45;;;25.20;99.90;;;;;;5019295;28;103404;-79
2022/08/15 07:10:02;;;;;;;14.40;7.97;;;25.20;99.90;;;;;;4981795;28;207504;-80
2022/08/15 07:12:52;;;;;;;13.63;7.78;;;25.50;99.90;;;;;;5013191;28;229911;-79
2022/08/15 07:15:24;;;;;;;10.95;7.53;;;25.80;99.90;;;;;;4936021;28;211590;-80
2022/08/15 07:17:57;;;;;;;12.50;7.72;;;26.20;99.90;;;;;;4976998;28;198953;-80
2022/08/15 07:20:23;;;;;;;11.75;7.65;;;26.50;99.90;;;;;;5004331;28;210559;-81
2022/08/15 07:22:49;;;;;;;12.23;6.80;;;26.60;99.90;;;;;;4960528;28;206977;-79
2022/08/15 07:25:20;;;;;;;11.27;7.35;;;26.70;99.90;;;;;;4994571;28;203893;-80
2022/08/15 07:28:06;;;;;;;11.77;6.95;;;26.70;99.90;;;;;;4973130;28;293467;-79
2022/08/15 07:30:54;;;;;;;11.35;7.15;;;26.70;99.90;;;;;;4997202;28;184804;-79
2022/08/15 07:33:30;;;;;;;11.20;7.28;;;26.70;99.90;;;;;;4959783;28;206724;-79
2022/08/15 07:36:06;;;;;;;12.60;7.57;;;26.70;99.90;;;;;;4980327;28;259709;-80
2022/08/15 07:38:32;;;;;;;12.63;7.38;;;26.70;99.90;;;;;;4943145;28;206666;-81
2022/08/15 07:41:15;;;;;;;11.20;6.93;;;26.80;99.90;;;;;;4954829;28;264279;-80
2022/08/15 07:43:42;;;;;;;11.73;7.57;;;26.80;99.90;;;;;;4955623;28;205533;-80
2022/08/15 07:46:19;;;;;;;11.97;6.87;;;26.80;99.90;;;;;;4990161;28;264862;-80
2022/08/15 07:48:55;;;;;;;12.73;7.70;;;26.80;99.90;;;;;;4957101;28;210957;-79
2022/08/15 07:51:29;;;;;;;12.73;7.30;;;26.70;99.90;;;;;;4988560;28;55870;-80
2022/08/15 07:54:03;;;;;;;10.98;7.63;;;26.50;99.70;;;;;;4954231;28;206318;-80
2022/08/15 07:56:32;;;;;;;13.52;7.60;;;26.50;99.80;;;;;;5002523;28;128772;-79
2022/08/15 07:59:21;;;;;;;11.02;7.40;;;26.40;99.50;;;;;;4954566;28;210152;-79
2022/08/15 08:01:52;;;;;;;11.15;7.20;;;26.40;98.40;;;;;;5000170;28;166298;-79
2022/08/15 08:04:24;;;;;;;14.20;7.65;;;26.40;99.10;;;;;;4952821;28;213005;-79
2022/08/15 08:07:00;;;;;;;10.98;7.20;;;26.40;98.90;;;;;;4990659;28;92212;-79
2022/08/15 08:09:35;;;;;;;12.00;7.60;;;26.50;98.90;;;;;;4962973;28;208677;-79
2022/08/15 08:12:25;;;;;;;11.75;7.65;;;26.50;98.40;;;;;;5011135;28;120922;-80
2022/08/15 08:15:02;;;;;;;10.40;7.45;;;26.40;97.90;;;;;;4964325;28;203968;-79
2022/08/15 08:17:34;;;;;;;12.23;7.45;;;26.30;98.10;;;;;;5003112;28;151200;-79
2022/08/15 08:20:13;;;;;;;10.48;7.40;;;26.20;98.00;;;;;;4945674;28;205142;-81
2022/08/15 08:23:04;;;;;;;12.27;7.18;;;26.20;98.00;;;;;;4975321;28;224918;-79
2022/08/15 08:25:42;;;;;;;10.70;6.95;;;26.40;98.20;;;;;;4982973;28;208385;-79
2022/08/15 08:28:16;;;;;;;15.93;8.30;;;26.40;98.10;;;;;;4950514;28;243765;-79
2022/08/15 08:30:50;;;;;;;12.32;8.35;;;26.60;98.00;;;;;;5016348;28;20054;-79
2022/08/15 08:33:51;;;;;;;10.63;7.88;;;26.80;97.80;;;;;;4934069;28;212445;-79
2022/08/15 08:36:32;;;;;;;12.48;7.55;;;26.90;97.50;;;;;;4987950;28;253299;-80
2022/08/15 08:39:32;;;;;;;12.38;7.97;;;27.10;97.60;;;;;;4959914;28;212417;-79
2022/08/15 08:42:26;;;;;;;12.63;8.25;;;27.20;97.30;;;;;;4991937;28;70732;-80
2022/08/15 08:45:01;;;;;;;13.48;7.50;;;27.40;97.10;;;;;;4930896;28;204649;-79
2022/08/15 08:47:51;;;;;;;11.15;7.07;;;27.50;97.40;;;;;;4987023;28;173137;-79
2022/08/15 08:50:39;;;;;;;11.45;7.57;;;27.60;97.10;;;;;;4934623;28;205909;-79
2022/08/15 08:53:17;;;;;;;16.70;7.60;;;27.70;96.90;;;;;;4952278;28;205516;-79
2022/08/15 08:56:20;;;;;;;11.15;7.47;;;27.70;96.10;;;;;;4998724;28;20041;-79
2022/08/15 08:58:57;;;;;;;13.30;7.30;;;27.70;96.10;;;;;;4903760;28;210892;-79
2022/08/15 09:01:26;;;;;;;11.15;7.82;;;27.80;96.50;;;;;;4922435;28;247820;-79
2022/08/15 09:03:59;;;;;;;11.52;7.68;;;28.00;95.80;;;;;;4896227;28;210609;-79
2022/08/15 09:06:31;;;;;;;12.40;7.40;;;28.40;96.20;;;;;;4948426;28;225186;-79
2022/08/15 09:09:04;;;;;;;11.10;7.20;;;28.90;96.60;;;;;;4901660;28;205510;-77
2022/08/15 09:11:37;;;;;;;13.70;7.85;;;29.50;96.20;;;;;;4931236;28;41619;-79
2022/08/15 09:14:17;;;;;;;12.98;7.35;;;30.10;95.60;;;;;;4910905;28;207095;-79
2022/08/15 09:16:44;;;;;;;10.88;6.65;;;30.50;94.50;;;;;;4943137;28;39104;-79
2022/08/15 09:19:24;;;;;;;13.43;7.45;;;31.00;94.00;;;;;;4889014;28;223406;-79
2022/08/15 09:21:51;;;;;;;9.70;6.90;;;31.30;92.90;;;;;;4922203;28;76252;-79
2022/08/15 09:24:21;;;;;;;10.23;6.63;;;31.50;92.30;;;;;;4913232;28;218698;-79
2022/08/15 09:27:22;;;;;;;11.70;6.20;;;31.70;91.10;;;;;;4936967;28;77931;-79
2022/08/15 09:30:04;;;;;;;12.32;6.25;;;31.60;87.40;;;;;;4895170;28;204141;-79
2022/08/15 09:32:42;;;;;;;10.93;7.32;;;31.40;88.90;;;;;;4926579;28;193715;-80
2022/08/15 09:35:22;;;;;;;11.85;7.30;;;31.50;88.30;;;;;;4870822;28;216013;-80
2022/08/15 09:38:15;;;;;;;11.98;6.15;;;31.70;87.30;;;;;;4926862;28;208019;-79
2022/08/15 09:40:49;;;;;;;13.13;6.90;;;32.20;88.60;;;;;;4936992;28;205469;-80
2022/08/15 09:43:36;;;;;;;12.85;6.55;;;32.80;86.20;;;;;;4889335;28;238718;-78
2022/08/15 09:46:25;;;;;;;10.70;6.68;;;33.20;81.00;;;;;;4926593;28;133829;-80
2022/08/15 09:49:00;;;;;;;10.48;6.97;;;33.20;77.70;;;;;;4887907;28;207803;-78
2022/08/15 09:52:04;;;;;;;11.20;6.80;;;32.90;78.10;;;;;;4919842;28;147466;-79
2022/08/15 09:54:33;;;;;;;10.40;6.60;;;32.40;77.70;;;;;;4865382;29;206101;-78
2022/08/15 09:57:29;;;;;;;12.98;6.80;;;32.30;79.70;;;;;;4909082;29;184415;-79
2022/08/15 10:00:19;;;;;;;12.02;7.60;;;32.50;75.70;;;;;;4881343;28;201030;-79
2022/08/15 10:02:49;;;;;;;14.20;7.20;;;32.50;75.80;;;;;;4893687;28;187862;-78
2022/08/15 10:06:09;;;;;;;10.63;7.10;;;32.40;77.90;;;;;;4855466;28;207632;-78
2022/08/15 10:08:53;;;;;;;12.10;7.47;;;32.70;75.90;;;;;;4866585;28;207182;-77
2022/08/15 10:11:51;;;;;;;11.32;7.32;;;32.50;75.00;;;;;;4920738;28;130076;-77
2022/08/15 10:14:39;;;;;;;13.82;7.72;;;32.40;73.20;;;;;;4879592;29;207408;-80
2022/08/15 10:17:33;;;;;;;13.60;8.55;;;32.20;75.00;;;;;;4921065;28;176084;-79
2022/08/15 10:20:29;;;;;;;13.32;8.38;;;32.40;74.00;;;;;;4920161;28;206366;-79
2022/08/15 10:23:04;;;;;;;15.32;8.15;;;32.50;73.70;;;;;;4847063;29;203788;-79
2022/08/15 10:26:08;;;;;;;14.38;10.77;;;32.20;74.90;;;;;;4915403;29;20062;-78
2022/08/15 10:28:37;;;;;;;14.60;9.93;;;31.30;74.70;;;;;;4834868;29;180003;-77
2022/08/15 10:31:05;;;;;;;16.05;10.80;;;30.50;77.30;;;;;;4877963;29;209900;-78
2022/08/15 10:33:31;;;;;;;13.75;10.55;;;30.00;77.50;;;;;;4834058;29;210398;-78
2022/08/15 10:36:30;;;;;;;14.90;10.27;;;29.40;78.60;;;;;;4858560;29;110073;-78
2022/08/15 10:39:34;;;;;;;15.20;9.45;;;29.30;79.90;;;;;;4829265;29;208808;-78
2022/08/15 10:42:38;;;;;;;15.40;10.52;;;29.20;80.70;;;;;;4894641;29;184119;-80
2022/08/15 10:45:29;;;;;;;15.10;11.20;;;28.90;82.80;;;;;;4908463;28;205436;-80
2022/08/15 10:48:09;;;;;;;17.45;11.05;;;28.70;84.00;;;;;;4879734;28;212758;-80
2022/08/15 10:50:41;;;;;;;16.98;11.18;;;28.50;84.50;;;;;;4937879;28;20058;-80
2022/08/15 10:53:30;;;;;;;15.77;11.57;;;28.30;85.80;;;;;;4878615;28;253340;-80
2022/08/15 10:56:33;;;;;;;14.73;10.93;;;28.20;85.70;;;;;;4924833;28;106496;-79
2022/08/15 10:59:17;;;;;;;20.08;11.10;;;28.10;87.50;;;;;;4869959;29;204749;-79
2022/08/15 11:01:45;;;;;;;17.08;11.57;;;28.00;88.80;;;;;;4887190;29;238715;-79
2022/08/15 11:04:26;;;;;;;21.85;13.90;;;27.60;88.80;;;;;;4868212;28;205225;-79
2022/08/15 11:06:53;;;;;;;22.67;13.43;;;27.60;91.80;;;;;;4902472;29;38901;-79
2022/08/15 11:09:22;;;;;;;21.63;14.85;;;27.20;94.70;;;;;;4855504;28;206864;-79
2022/08/15 11:11:55;;;;;;;22.88;15.13;;;26.70;98.60;;;;;;4897240;29;94285;-79
2022/08/15 11:14:26;;;;;;;22.52;14.00;;;26.40;99.90;;;;;;4879799;28;225311;-78
2022/08/15 11:16:52;;;;;;;23.45;14.48;;;26.20;99.90;;;;;;4971459;28;55884;-78
2022/08/15 11:19:28;;;;;;;23.77;15.73;;;25.90;99.90;;;;;;4937981;28;220264;-76
2022/08/15 11:21:59;;;;;;;19.80;16.00;;;25.60;99.90;;;;;;4936771;28;121325;-77
2022/08/15 11:24:31;;;;;;;23.30;14.50;;;25.40;99.90;;;;;;4897888;28;204531;-77
2022/08/15 11:27:21;;;;;;;22.45;16.15;;;25.20;99.90;;;;;;4936277;28;276381;-79
2022/08/15 11:29:49;;;;;;;24.60;15.73;;;25.00;99.90;;;;;;4887540;28;211890;-79
2022/08/15 11:32:31;;;;;;;19.52;15.93;;;24.90;99.90;;;;;;4950426;28;53105;-78
2022/08/15 11:34:59;;;;;;;20.92;16.35;;;24.90;99.90;;;;;;4926116;28;206379;-77
2022/08/15 11:37:32;;;;;;;22.80;16.40;;;24.60;99.90;;;;;;4989956;28;206457;-76
2022/08/15 11:40:00;;;;;;;21.70;17.10;;;24.50;99.90;;;;;;4962983;28;207305;-76
2022/08/15 11:42:36;;;;;;;17.65;14.20;;;24.30;99.90;;;;;;5014713;28;137349;-77
2022/08/15 11:45:10;;;;;;;19.13;14.85;;;24.20;99.90;;;;;;4944093;28;196106;-77
2022/08/15 11:47:44;;;;;;;18.45;14.50;;;24.10;99.90;;;;;;5006935;28;89712;-77
2022/08/15 11:50:25;;;;;;;18.58;14.25;;;24.20;99.90;;;;;;4965931;28;248189;-77
2022/08/15 11:52:58;;;;;;;17.52;13.80;;;24.30;99.90;;;;;;4932610;28;228698;-76
2022/08/15 11:55:30;;;;;;;16.23;13.57;;;24.50;99.90;;;;;;5017264;28;20079;-77
2022/08/15 11:58:16;;;;;;;18.07;13.40;;;24.70;99.90;;;;;;4946826;28;205114;-77
2022/08/15 12:00:44;;;;;;;19.77;14.18;;;24.80;99.90;;;;;;5001507;28;20065;-78
2022/08/15 12:03:27;;;;;;;16.40;13.00;;;24.80;99.90;;;;;;4946303;28;215636;-78
2022/08/15 12:05:56;;;;;;;16.73;12.73;;;25.00;99.90;;;;;;4995221;28;20060;-78
2022/08/15 12:08:31;;;;;;;15.75;12.63;;;25.10;99.90;;;;;;4970583;28;217003;-78
2022/08/15 12:11:07;;;;;;;15.10;12.40;;;25.30;99.90;;;;;;5005846;28;270161;-78
2022/08/15 12:13:34;;;;;;;15.38;11.20;;;25.40;99.90;;;;;;4970296;28;206431;-78
2022/08/15 12:16:01;;;;;;;15.87;11.87;;;25.60;99.90;;;;;;5009747;28;259300;-78
2022/08/15 12:18:32;;;;;;;14.20;11.98;;;25.90;99.90;;;;;;4957984;28;209039;-76
2022/08/15 12:21:03;;;;;;;16.90;12.68;;;26.20;99.90;;;;;;5013744;28;260423;-77
2022/08/15 12:23:30;;;;;;;16.25;12.20;;;26.40;99.90;;;;;;4976567;28;213145;-77
2022/08/15 12:25:58;;;;;;;17.45;12.93;;;26.60;99.90;;;;;;5005112;28;278586;-78
2022/08/15 12:28:25;;;;;;;16.38;13.02;;;26.80;99.90;;;;;;4958728;28;209355;-77
2022/08/15 12:31:20;;;;;;;17.20;12.85;;;26.80;99.90;;;;;;5016002;28;20041;-77
2022/08/15 12:33:48;;;;;;;17.80;12.85;;;26.80;99.90;;;;;;4953782;28;67185;-78
2022/08/15 12:36:14;;;;;;;16.08;12.55;;;26.90;99.90;;;;;;4982781;28;248409;-78
2022/08/15 12:38:40;;;;;;;14.90;12.18;;;26.90;99.90;;;;;;4971259;28;205056;-79
2022/08/15 12:41:08;;;;;;;14.77;12.17;;;27.00;99.90;;;;;;5006849;28;255370;-79
2022/08/15 12:43:35;;;;;;;15.73;12.35;;;26.90;99.90;;;;;;4965402;28;212025;-79
2022/08/15 12:46:03;;;;;;;15.10;12.43;;;26.90;99.90;;;;;;5004464;28;260823;-78
2022/08/15 12:48:33;;;;;;;16.30;12.65;;;27.10;99.90;;;;;;4964897;28;223601;-79
2022/08/15 12:51:01;;;;;;;15.40;13.18;;;27.10;99.90;;;;;;4965816;28;242933;-77
2022/08/15 12:53:27;;;;;;;17.25;12.95;;;27.20;99.90;;;;;;4962884;28;232111;-77
2022/08/15 12:55:53;;;;;;;16.33;13.20;;;27.20;99.90;;;;;;5006134;28;20049;-76
2022/08/15 12:58:20;;;;;;;16.33;14.13;;;27.30;99.90;;;;;;4952120;28;83224;-77